Time;durP1;ratioP1;P1;durP2;ratioP2;P2;SDS_P1;SDS_P2;PMS_P1;PMS_P2;Temp;Humidity;BMP_temperature;BMP_pressure;BME280_temperature;BME280_humidity;BME280_pressure;Samples;Min_cycle;Max_cycle;Signal;HPM_P1;HPM_P2
2024/01/24 00:02:09;;;;;;;4.35;1.88;;;;;12.70;101136.00;;;;9828616;29;20239;-87
2024/01/24 00:07:11;;;;;;;6.20;1.63;;;;;12.70;101120.00;;;;9828705;29;20228;-78
2024/01/24 00:12:12;;;;;;;4.90;1.60;;;;;12.70;101102.00;;;;9828206;29;20235;-78
2024/01/24 00:17:14;;;;;;;2.80;0.88;;;;;12.70;101077.00;;;;9827957;29;20610;-78
2024/01/24 00:22:16;;;;;;;1.92;0.90;;;;;12.80;101082.00;;;;9839043;29;20424;-77
2024/01/24 00:27:19;;;;;;;3.20;1.63;;;;;12.80;101104.00;;;;9824686;29;20267;-77
2024/01/24 00:32:21;;;;;;;1.75;1.10;;;;;12.80;101067.00;;;;9821871;29;20289;-78
2024/01/24 00:37:23;;;;;;;3.60;1.23;;;;;12.70;101056.00;;;;9843087;29;20322;-78
2024/01/24 00:42:25;;;;;;;3.25;1.52;;;;;12.80;101074.00;;;;9860286;29;20232;-76
2024/01/24 00:47:27;;;;;;;2.85;1.15;;;;;12.90;101067.00;;;;9855518;29;20251;-76
2024/01/24 00:52:29;;;;;;;1.10;1.00;;;;;12.90;101064.00;;;;9850608;29;20706;-77
2024/01/24 00:57:31;;;;;;;2.22;1.20;;;;;12.90;101075.00;;;;9840455;29;20293;-77
2024/01/24 01:02:33;;;;;;;3.90;1.42;;;;;12.70;101073.00;;;;9850700;29;20243;-79
2024/01/24 01:07:35;;;;;;;6.07;1.50;;;;;12.50;101079.00;;;;9837743;29;20285;-78
2024/01/24 01:12:37;;;;;;;1.13;1.02;;;;;12.40;101096.00;;;;9852855;29;20236;-78
2024/01/24 01:17:39;;;;;;;3.00;1.38;;;;;12.30;101099.00;;;;9853002;29;20253;-78
2024/01/24 01:22:41;;;;;;;3.40;1.50;;;;;12.20;101122.00;;;;9822400;29;20247;-82
2024/01/24 01:27:45;;;;;;;2.05;1.05;;;;;12.10;101111.00;;;;9848554;29;20235;-79
2024/01/24 01:32:47;;;;;;;4.10;1.20;;;;;12.10;101110.00;;;;9837846;29;20228;-79
2024/01/24 01:37:49;;;;;;;2.28;1.00;;;;;12.10;101099.00;;;;9824000;29;20292;-79
2024/01/24 01:42:51;;;;;;;1.10;1.00;;;;;12.10;101128.00;;;;9834490;29;20960;-80
2024/01/24 01:47:53;;;;;;;1.67;1.20;;;;;12.10;101122.00;;;;9833993;29;20244;-80
2024/01/24 01:52:55;;;;;;;1.15;1.08;;;;;12.00;101123.00;;;;9837507;29;20800;-80
2024/01/24 01:57:58;;;;;;;1.27;0.82;;;;;12.00;101103.00;;;;9840458;29;20306;-80
2024/01/24 02:03:00;;;;;;;0.82;0.70;;;;;12.00;101107.00;;;;9833434;29;20236;-79
2024/01/24 02:08:02;;;;;;;1.75;1.15;;;;;11.90;101107.00;;;;9849976;29;20236;-80
2024/01/24 02:13:05;;;;;;;0.90;0.82;;;;;11.80;101114.00;;;;9836501;29;20227;-81
2024/01/24 02:18:07;;;;;;;3.40;1.40;;;;;11.80;101108.00;;;;9834163;29;20231;-81
2024/01/24 02:23:12;;;;;;;0.90;0.90;;;;;11.80;101106.00;;;;9829084;29;20239;-81
2024/01/24 02:28:13;;;;;;;3.95;1.10;;;;;11.80;101104.00;;;;9847042;29;20242;-81
2024/01/24 02:33:15;;;;;;;0.70;0.70;;;;;11.80;101107.00;;;;9829645;29;20608;-79
2024/01/24 02:38:17;;;;;;;2.78;1.63;;;;;11.80;101106.00;;;;9810380;29;20696;-81
2024/01/24 02:43:19;;;;;;;1.00;0.85;;;;;11.70;101110.00;;;;9839341;29;20272;-79
2024/01/24 02:48:21;;;;;;;0.75;0.75;;;;;11.70;101116.00;;;;9816698;30;20293;-80
2024/01/24 02:53:23;;;;;;;1.60;0.68;;;;;11.70;101137.00;;;;9835655;29;20244;-77
2024/01/24 02:58:25;;;;;;;0.40;0.40;;;;;11.70;101141.00;;;;9815664;29;20232;-78
2024/01/24 03:03:27;;;;;;;0.53;0.53;;;;;11.70;101144.00;;;;9850956;29;20642;-78
2024/01/24 03:08:29;;;;;;;0.68;0.52;;;;;11.70;101181.00;;;;9834935;29;20867;-78
2024/01/24 03:13:31;;;;;;;1.58;0.50;;;;;11.70;101159.00;;;;9831713;29;20236;-78
2024/01/24 03:18:38;;;;;;;1.48;0.90;;;;;11.70;101153.00;;;;9841848;29;20569;-77
2024/01/24 03:23:40;;;;;;;3.27;0.80;;;;;11.60;101151.00;;;;9852137;29;20229;-77
2024/01/24 03:28:42;;;;;;;4.07;1.37;;;;;11.60;101154.00;;;;9863703;29;20239;-77
2024/01/24 03:33:44;;;;;;;3.30;0.88;;;;;11.70;101185.00;;;;9833210;29;20236;-77
2024/01/24 03:38:46;;;;;;;2.50;0.98;;;;;11.80;101172.00;;;;9829514;29;20774;-76
2024/01/24 03:43:48;;;;;;;3.63;0.90;;;;;11.80;101172.00;;;;9840176;29;20239;-77
2024/01/24 03:48:50;;;;;;;2.97;0.80;;;;;11.80;101157.00;;;;9834164;29;20311;-78
2024/01/24 03:53:52;;;;;;;6.15;1.40;;;;;11.90;101187.00;;;;9842535;29;20232;-77
2024/01/24 03:58:54;;;;;;;5.05;2.20;;;;;11.90;101174.00;;;;9831657;29;20230;-80
2024/01/24 04:03:56;;;;;;;8.43;1.48;;;;;12.00;101202.00;;;;9833161;29;20590;-76
2024/01/24 04:08:58;;;;;;;6.22;1.58;;;;;12.00;101213.00;;;;9817132;29;20238;-77
2024/01/24 04:14:02;;;;;;;7.85;1.48;;;;;12.00;101230.00;;;;9819603;29;20236;-78
2024/01/24 04:19:04;;;;;;;3.72;1.27;;;;;11.90;101226.00;;;;9847423;29;20259;-77
2024/01/24 04:24:06;;;;;;;6.75;1.63;;;;;11.90;101218.00;;;;9820593;29;20235;-78
2024/01/24 04:29:08;;;;;;;6.68;1.90;;;;;11.90;101202.00;;;;9824345;29;20309;-76
2024/01/24 04:34:17;;;;;;;8.17;2.20;;;;;11.80;101184.00;;;;9833777;29;20334;-77
2024/01/24 04:39:19;;;;;;;12.47;2.70;;;;;11.80;101214.00;;;;9852956;29;20246;-78
2024/01/24 04:44:20;;;;;;;19.58;3.60;;;;;11.70;101229.00;;;;9850840;29;20240;-77
2024/01/24 04:49:22;;;;;;;21.33;4.65;;;;;11.80;101240.00;;;;9824225;29;20256;-77
2024/01/24 04:54:41;;;;;;;19.17;4.65;;;;;11.70;101238.00;;;;9835904;29;20240;-87
2024/01/24 04:59:43;;;;;;;19.05;4.72;;;;;11.60;101247.00;;;;9857725;29;20228;-86
2024/01/24 05:04:56;;;;;;;22.55;4.50;;;;;11.60;101256.00;;;;9840400;29;20331;-84
2024/01/24 05:09:58;;;;;;;21.03;4.57;;;;;11.50;101279.00;;;;9844904;29;20224;-87
2024/01/24 05:15:00;;;;;;;21.75;5.10;;;;;11.50;101283.00;;;;9825418;30;20236;-80
2024/01/24 05:20:06;;;;;;;31.57;5.47;;;;;11.50;101252.00;;;;9841591;29;20260;-81
2024/01/24 05:25:08;;;;;;;23.92;4.63;;;;;11.50;101258.00;;;;9823017;29;20232;-85
2024/01/24 05:30:10;;;;;;;26.90;5.67;;;;;11.50;101258.00;;;;9851448;29;20234;-83
2024/01/24 05:35:26;;;;;;;26.43;5.90;;;;;11.50;101279.00;;;;9849560;29;20227;-83
2024/01/24 05:40:27;;;;;;;28.33;5.50;;;;;11.50;101281.00;;;;9838286;29;20240;-84
2024/01/24 05:45:31;;;;;;;30.03;5.37;;;;;11.50;101289.00;;;;9837505;29;20790;-86
2024/01/24 05:50:33;;;;;;;22.50;5.00;;;;;11.50;101324.00;;;;9849702;29;20232;-84
2024/01/24 05:55:36;;;;;;;32.42;6.13;;;;;11.50;101314.00;;;;9842980;29;20236;-85
2024/01/24 06:00:38;;;;;;;36.03;6.57;;;;;11.50;101339.00;;;;9853525;29;20256;-85
2024/01/24 06:05:40;;;;;;;21.83;5.82;;;;;11.50;101340.00;;;;9833012;29;20805;-78
2024/01/24 06:10:41;;;;;;;33.35;6.60;;;;;11.50;101384.00;;;;9835901;29;20319;-78
2024/01/24 06:15:43;;;;;;;37.63;6.93;;;;;11.40;101356.00;;;;9821888;29;20255;-78
2024/01/24 06:20:45;;;;;;;32.07;6.43;;;;;11.40;101374.00;;;;9820105;29;20235;-79
2024/01/24 06:25:47;;;;;;;28.50;6.37;;;;;11.30;101352.00;;;;9847856;29;20236;-78
2024/01/24 06:30:51;;;;;;;35.15;7.05;;;;;11.20;101403.00;;;;9838859;29;20228;-78
2024/01/24 06:35:53;;;;;;;31.17;5.97;;;;;11.20;101400.00;;;;9833530;29;20770;-78
2024/01/24 06:40:55;;;;;;;35.65;6.20;;;;;11.10;101414.00;;;;9833849;29;20247;-78
2024/01/24 06:45:56;;;;;;;50.93;9.10;;;;;11.10;101420.00;;;;9837255;29;20302;-78
2024/01/24 06:50:58;;;;;;;35.73;7.20;;;;;11.10;101402.00;;;;9820405;29;20232;-78
2024/01/24 06:56:01;;;;;;;37.83;8.33;;;;;11.10;101457.00;;;;9845850;29;20560;-78
2024/01/24 07:01:03;;;;;;;36.83;7.13;;;;;11.00;101448.00;;;;9831699;29;20294;-77
2024/01/24 07:06:05;;;;;;;35.33;7.03;;;;;11.00;101457.00;;;;9834786;29;20231;-78
2024/01/24 07:11:08;;;;;;;46.27;8.13;;;;;11.00;101487.00;;;;9832375;29;20847;-77
2024/01/24 07:16:10;;;;;;;42.77;7.37;;;;;11.00;101492.00;;;;9835276;29;20255;-77
2024/01/24 07:21:14;;;;;;;35.67;7.93;;;;;11.00;101497.00;;;;9852385;29;21017;-77
2024/01/24 07:26:16;;;;;;;45.33;8.43;;;;;11.00;101511.00;;;;9822373;29;20243;-77
2024/01/24 07:31:17;;;;;;;46.40;8.73;;;;;11.00;101521.00;;;;9853256;29;20276;-77
2024/01/24 07:36:21;;;;;;;36.40;8.47;;;;;11.00;101553.00;;;;9823706;29;20232;-78
2024/01/24 07:41:23;;;;;;;42.33;8.67;;;;;11.00;101556.00;;;;9831799;29;20688;-78
2024/01/24 07:46:27;;;;;;;43.50;8.43;;;;;11.00;101577.00;;;;9817186;29;20297;-77
2024/01/24 07:51:29;;;;;;;38.37;7.87;;;;;10.90;101566.00;;;;9824642;29;20237;-78
2024/01/24 07:56:31;;;;;;;35.90;8.10;;;;;10.80;101572.00;;;;9866361;29;20662;-78
2024/01/24 08:01:33;;;;;;;38.67;7.57;;;;;10.80;101583.00;;;;9833868;29;20301;-78
2024/01/24 08:06:34;;;;;;;35.93;8.07;;;;;10.80;101595.00;;;;9840944;29;20323;-78
2024/01/24 08:11:37;;;;;;;36.27;8.77;;;;;10.90;101588.00;;;;9852332;29;20235;-77
2024/01/24 08:16:40;;;;;;;38.60;7.93;;;;;11.00;101615.00;;;;9853327;29;20256;-78
2024/01/24 08:21:42;;;;;;;53.13;8.60;;;;;11.10;101606.00;;;;9857688;29;20329;-78
2024/01/24 08:26:44;;;;;;;38.27;6.90;;;;;11.10;101624.00;;;;9833933;29;20320;-80
2024/01/24 08:31:49;;;;;;;42.03;8.43;;;;;11.20;101639.00;;;;9807670;29;20224;-80
2024/01/24 08:36:51;;;;;;;42.30;8.73;;;;;11.30;101653.00;;;;9855273;29;20311;-81
2024/01/24 08:41:53;;;;;;;42.13;7.70;;;;;11.30;101628.00;;;;9841399;29;20232;-82
2024/01/24 08:46:54;;;;;;;47.30;7.82;;;;;11.40;101651.00;;;;9853083;29;20236;-81
2024/01/24 08:51:57;;;;;;;54.47;9.90;;;;;11.40;101639.00;;;;9826059;29;20229;-81
2024/01/24 08:56:59;;;;;;;41.80;9.50;;;;;11.50;101640.00;;;;9848758;29;20228;-81
2024/01/24 09:02:04;;;;;;;44.23;7.97;;;;;11.60;101647.00;;;;9814803;29;20243;-83
2024/01/24 09:07:08;;;;;;;37.30;8.37;;;;;11.70;101645.00;;;;9844948;29;20236;-82
2024/01/24 09:12:10;;;;;;;39.17;8.20;;;;;11.70;101656.00;;;;9834078;29;20236;-81
2024/01/24 09:17:12;;;;;;;39.83;8.90;;;;;11.80;101667.00;;;;9832281;29;20239;-81
2024/01/24 09:22:14;;;;;;;38.90;7.80;;;;;11.80;101663.00;;;;9816305;29;20281;-82
2024/01/24 09:27:16;;;;;;;41.00;8.10;;;;;11.90;101709.00;;;;9855107;29;20310;-82
2024/01/24 09:32:18;;;;;;;37.03;8.35;;;;;12.00;101732.00;;;;9847530;29;20237;-82
2024/01/24 09:37:20;;;;;;;39.00;8.25;;;;;12.10;101735.00;;;;9850274;29;20699;-78
2024/01/24 09:42:26;;;;;;;42.42;8.68;;;;;12.20;101759.00;;;;9849190;29;20240;-78
2024/01/24 09:47:28;;;;;;;40.22;7.82;;;;;12.30;101789.00;;;;9847584;29;20222;-78
2024/01/24 09:52:34;;;;;;;43.10;9.68;;;;;12.40;101791.00;;;;9852947;29;20242;-77
2024/01/24 09:57:36;;;;;;;38.42;9.00;;;;;12.40;101792.00;;;;9852069;29;20320;-78
2024/01/24 10:02:39;;;;;;;52.10;10.85;;;;;12.30;101800.00;;;;9855757;29;20232;-78
2024/01/24 10:07:41;;;;;;;45.73;12.57;;;;;12.30;101801.00;;;;9846989;29;20224;-77
2024/01/24 10:12:44;;;;;;;45.13;9.20;;;;;12.40;101814.00;;;;9831581;29;20708;-78
2024/01/24 10:17:46;;;;;;;40.97;8.93;;;;;12.60;101810.00;;;;9833012;29;20649;-78
2024/01/24 10:22:50;;;;;;;47.83;8.82;;;;;12.80;101828.00;;;;9832919;29;20315;-78
2024/01/24 10:27:54;;;;;;;45.30;9.70;;;;;12.70;101843.00;;;;9820117;29;20259;-79
2024/01/24 10:32:58;;;;;;;44.13;8.35;;;;;12.80;101856.00;;;;9833324;29;20235;-79
2024/01/24 10:38:01;;;;;;;40.80;9.00;;;;;12.90;101814.00;;;;9848083;29;20243;-78
2024/01/24 10:43:09;;;;;;;45.60;10.45;;;;;13.00;101843.00;;;;9846431;29;20236;-83
2024/01/24 10:48:11;;;;;;;41.58;8.95;;;;;13.20;101831.00;;;;9844814;29;20236;-82
2024/01/24 10:53:14;;;;;;;39.78;8.25;;;;;13.50;101864.00;;;;9830771;29;20215;-83
2024/01/24 10:58:16;;;;;;;39.38;7.13;;;;;13.40;101861.00;;;;9840668;29;20683;-84
2024/01/24 11:03:18;;;;;;;34.97;7.70;;;;;13.50;101871.00;;;;9852728;29;20236;-81
2024/01/24 11:08:40;;;;;;;38.78;8.98;;;;;13.40;101881.00;;;;9823831;29;20310;-83
2024/01/24 11:13:51;;;;;;;41.72;8.00;;;;;13.40;101884.00;;;;9836891;29;20236;-84
2024/01/24 11:18:57;;;;;;;36.45;7.78;;;;;13.50;101892.00;;;;9833319;29;20228;-82
2024/01/24 11:23:59;;;;;;;33.22;8.05;;;;;13.90;101912.00;;;;9857396;29;20812;-83
2024/01/24 11:29:11;;;;;;;42.03;7.88;;;;;13.90;101922.00;;;;9838232;29;20220;-83
2024/01/24 11:34:16;;;;;;;31.30;6.90;;;;;13.90;101930.00;;;;9861533;29;20323;-83
2024/01/24 11:39:34;;;;;;;32.45;7.53;;;;;13.60;101933.00;;;;9866805;29;20231;-83
2024/01/24 11:44:37;;;;;;;38.45;8.13;;;;;13.50;101951.00;;;;9835886;29;20884;-82
2024/01/24 11:49:38;;;;;;;32.83;7.32;;;;;13.20;101954.00;;;;9855098;29;21007;-83
2024/01/24 11:54:52;;;;;;;38.33;8.52;;;;;13.20;101959.00;;;;9845939;29;20228;-80
2024/01/24 11:59:55;;;;;;;34.63;8.07;;;;;13.40;101972.00;;;;9854351;29;20232;-80
2024/01/24 12:04:57;;;;;;;36.55;7.28;;;;;13.60;101982.00;;;;9851814;29;20243;-80
2024/01/24 12:09:59;;;;;;;28.35;6.32;;;;;13.70;101981.00;;;;9832723;29;20247;-79
2024/01/24 12:15:01;;;;;;;39.50;6.93;;;;;13.60;101978.00;;;;9850077;29;20307;-80
2024/01/24 12:20:05;;;;;;;36.92;7.45;;;;;13.70;101981.00;;;;9851483;29;20688;-79
2024/01/24 12:25:08;;;;;;;32.03;7.10;;;;;14.20;101978.00;;;;9850212;29;20259;-81
2024/01/24 12:30:11;;;;;;;27.80;6.68;;;;;14.20;101978.00;;;;9847456;29;20248;-80
2024/01/24 12:35:16;;;;;;;29.77;6.72;;;;;14.10;101984.00;;;;9838761;29;20815;-80
2024/01/24 12:40:18;;;;;;;26.33;6.32;;;;;14.30;101996.00;;;;9830667;29;20237;-80
2024/01/24 12:45:23;;;;;;;29.77;6.63;;;;;14.30;102002.00;;;;9824330;29;20240;-80
2024/01/24 12:50:25;;;;;;;35.67;7.30;;;;;13.90;101993.00;;;;9839190;29;20290;-80
2024/01/24 12:55:27;;;;;;;31.27;6.70;;;;;13.80;102008.00;;;;9853113;29;20233;-78
2024/01/24 13:00:29;;;;;;;29.55;7.85;;;;;13.80;102008.00;;;;9841971;29;20239;-77
2024/01/24 13:05:31;;;;;;;24.90;5.95;;;;;13.90;102003.00;;;;9842563;29;20808;-78
2024/01/24 13:10:47;;;;;;;25.23;5.53;;;;;13.60;101995.00;;;;9836508;29;20683;-80
2024/01/24 13:15:53;;;;;;;33.15;6.57;;;;;13.40;102005.00;;;;9859077;29;20301;-77
2024/01/24 13:20:55;;;;;;;24.63;6.13;;;;;13.10;102017.00;;;;9833380;29;20284;-76
2024/01/24 13:25:57;;;;;;;26.60;5.85;;;;;13.30;102027.00;;;;9852752;29;20236;-78
2024/01/24 13:30:59;;;;;;;27.17;5.97;;;;;13.50;102032.00;;;;9836083;29;20778;-77
2024/01/24 13:36:02;;;;;;;24.52;5.60;;;;;13.50;102029.00;;;;9841933;29;20229;-78
2024/01/24 13:41:03;;;;;;;20.55;5.05;;;;;13.60;102028.00;;;;9858911;29;20244;-77
2024/01/24 13:46:07;;;;;;;30.73;7.18;;;;;13.50;102037.00;;;;9816529;29;20260;-77
2024/01/24 13:51:08;;;;;;;22.52;5.35;;;;;13.20;102032.00;;;;9848380;29;20319;-76
2024/01/24 13:56:10;;;;;;;25.73;6.07;;;;;13.10;102039.00;;;;9849707;29;20236;-77
2024/01/24 14:01:12;;;;;;;31.40;6.00;;;;;13.00;102050.00;;;;9833621;29;20691;-77
2024/01/24 14:06:16;;;;;;;31.50;6.50;;;;;12.90;102046.00;;;;9837323;29;20224;-75
2024/01/24 14:11:18;;;;;;;28.88;6.25;;;;;12.70;102050.00;;;;9819999;29;20228;-75
2024/01/24 14:16:20;;;;;;;27.92;6.63;;;;;12.60;102057.00;;;;9819333;29;20237;-84
2024/01/24 14:21:23;;;;;;;25.20;5.78;;;;;12.60;102054.00;;;;9852499;29;20236;-84
2024/01/24 14:26:30;;;;;;;26.60;6.53;;;;;12.50;102070.00;;;;9821624;29;20328;-82
2024/01/24 14:31:32;;;;;;;30.10;6.28;;;;;12.40;102077.00;;;;9820101;29;20223;-84
2024/01/24 14:36:37;;;;;;;35.10;6.90;;;;;12.40;102088.00;;;;9852464;29;20251;-85
2024/01/24 14:41:40;;;;;;;39.05;6.70;;;;;12.30;102091.00;;;;9833674;29;20243;-83
2024/01/24 14:46:42;;;;;;;37.17;6.88;;;;;12.20;102102.00;;;;9832296;29;20319;-82
2024/01/24 14:51:44;;;;;;;32.10;6.38;;;;;12.10;102108.00;;;;9849686;29;20232;-83
2024/01/24 14:56:46;;;;;;;34.88;6.50;;;;;12.00;102102.00;;;;9834723;29;20275;-85
2024/01/24 15:01:51;;;;;;;39.78;6.88;;;;;11.90;102102.00;;;;9827761;29;20232;-84
2024/01/24 15:06:53;;;;;;;33.35;7.15;;;;;11.70;102107.00;;;;9846753;29;20231;-85
2024/01/24 15:11:55;;;;;;;35.53;7.17;;;;;11.70;102103.00;;;;9846249;29;20239;-85
2024/01/24 15:16:57;;;;;;;38.40;7.55;;;;;11.50;102090.00;;;;9859433;29;20320;-82
2024/01/24 15:22:00;;;;;;;43.53;7.57;;;;;11.40;102105.00;;;;9852677;29;20240;-85
2024/01/24 15:27:03;;;;;;;40.57;7.63;;;;;11.40;102097.00;;;;9862677;29;20319;-84
2024/01/24 15:32:05;;;;;;;45.40;7.97;;;;;11.40;102099.00;;;;9852477;29;20263;-85
2024/01/24 15:37:07;;;;;;;36.37;7.33;;;;;11.30;102109.00;;;;9862385;29;20254;-84
2024/01/24 15:42:12;;;;;;;46.00;8.00;;;;;11.20;102126.00;;;;9862549;29;20232;-82
2024/01/24 15:47:14;;;;;;;46.43;13.20;;;;;11.10;102113.00;;;;9849231;29;20262;-83
2024/01/24 15:52:17;;;;;;;32.73;8.80;;;;;11.10;102120.00;;;;9826278;29;20255;-82
2024/01/24 15:57:21;;;;;;;34.73;8.43;;;;;11.00;102132.00;;;;9854558;29;20635;-82
2024/01/24 16:02:23;;;;;;;38.90;8.57;;;;;10.90;102132.00;;;;9858708;29;20300;-83
2024/01/24 16:07:25;;;;;;;37.00;8.30;;;;;10.80;102155.00;;;;9848604;29;20301;-81
2024/01/24 16:12:28;;;;;;;37.90;9.00;;;;;10.70;102162.00;;;;9867907;29;20247;-81
2024/01/24 16:17:30;;;;;;;50.00;9.60;;;;;10.70;102158.00;;;;9833212;29;20227;-83
2024/01/24 16:22:31;;;;;;;37.20;7.83;;;;;10.60;102159.00;;;;9850616;29;20722;-85
2024/01/24 16:27:39;;;;;;;39.33;7.60;;;;;10.60;102165.00;;;;9830750;29;20232;-83
2024/01/24 16:32:43;;;;;;;40.63;6.73;;;;;10.60;102167.00;;;;9862738;29;20228;-80
2024/01/24 16:37:48;;;;;;;38.90;7.90;;;;;10.60;102146.00;;;;9835074;29;20256;-80
2024/01/24 16:42:50;;;;;;;42.63;7.63;;;;;10.60;102180.00;;;;9835393;29;20938;-80
2024/01/24 16:47:53;;;;;;;42.73;8.87;;;;;10.50;102178.00;;;;9850231;29;20232;-80
2024/01/24 16:52:54;;;;;;;37.80;8.87;;;;;10.50;102178.00;;;;9848272;29;20319;-80
2024/01/24 16:57:56;;;;;;;41.23;9.40;;;;;10.40;102177.00;;;;9826981;29;20298;-80
2024/01/24 17:02:58;;;;;;;34.83;7.20;;;;;10.40;102168.00;;;;9847357;29;20243;-79
2024/01/24 17:08:01;;;;;;;37.60;6.73;;;;;10.40;102166.00;;;;9846132;29;20244;-81
2024/01/24 17:13:03;;;;;;;34.70;6.30;;;;;10.40;102187.00;;;;9834923;29;20305;-80
2024/01/24 17:18:06;;;;;;;39.40;8.47;;;;;10.40;102189.00;;;;9850660;29;20240;-80
2024/01/24 17:23:08;;;;;;;33.20;7.33;;;;;10.40;102207.00;;;;9830345;29;20400;-79
2024/01/24 17:28:10;;;;;;;34.47;7.03;;;;;10.40;102191.00;;;;9832866;29;20255;-79
2024/01/24 17:33:12;;;;;;;35.93;7.20;;;;;10.40;102199.00;;;;9831133;29;20228;-79
2024/01/24 17:38:14;;;;;;;42.60;7.80;;;;;10.30;102208.00;;;;9832477;29;20238;-79
2024/01/24 17:43:16;;;;;;;42.30;7.90;;;;;10.30;102219.00;;;;9821101;29;20263;-79
2024/01/24 17:48:18;;;;;;;39.27;8.27;;;;;10.30;102203.00;;;;9816224;29;20291;-79
2024/01/24 17:53:20;;;;;;;42.67;7.67;;;;;10.30;102201.00;;;;9861299;29;20313;-79
2024/01/24 17:58:22;;;;;;;34.13;7.50;;;;;10.30;102213.00;;;;9815095;29;20236;-78
2024/01/24 18:03:24;;;;;;;36.90;6.90;;;;;10.30;102208.00;;;;9842862;29;20274;-79
2024/01/24 18:08:26;;;;;;;40.23;7.67;;;;;10.30;102213.00;;;;9809077;29;20232;-80
2024/01/24 18:13:28;;;;;;;26.27;6.83;;;;;10.20;102226.00;;;;9861357;29;20311;-78
2024/01/24 18:18:30;;;;;;;35.63;6.87;;;;;10.20;102220.00;;;;9815118;29;20687;-79
2024/01/24 18:23:32;;;;;;;35.47;7.60;;;;;10.10;102224.00;;;;9831344;29;21026;-79
2024/01/24 18:28:34;;;;;;;29.13;6.20;;;;;10.10;102209.00;;;;9815994;29;20289;-79
2024/01/24 18:33:36;;;;;;;40.43;7.53;;;;;10.00;102228.00;;;;9845042;29;20852;-79
2024/01/24 18:38:39;;;;;;;42.40;6.60;;;;;9.90;102228.00;;;;9827971;29;20939;-79
2024/01/24 18:43:41;;;;;;;37.80;6.93;;;;;9.90;102223.00;;;;9841774;29;20323;-79
2024/01/24 18:48:45;;;;;;;39.50;8.13;;;;;9.80;102226.00;;;;9831212;29;20228;-79
2024/01/24 18:53:47;;;;;;;32.20;6.90;;;;;9.70;102240.00;;;;9852302;29;20259;-85
2024/01/24 18:58:49;;;;;;;32.47;8.17;;;;;9.70;102254.00;;;;9830001;29;20224;-85
2024/01/24 19:03:54;;;;;;;38.00;7.47;;;;;9.70;102268.00;;;;9831661;29;20944;-84
2024/01/24 19:08:59;;;;;;;38.17;8.53;;;;;9.70;102267.00;;;;9830925;29;20236;-84
2024/01/24 19:14:04;;;;;;;33.00;9.60;;;;;9.60;102268.00;;;;9842349;29;20270;-84
2024/01/24 19:19:07;;;;;;;32.70;8.43;;;;;9.50;102262.00;;;;9832184;29;20569;-86
2024/01/24 19:24:09;;;;;;;43.13;7.73;;;;;9.50;102252.00;;;;9845566;29;20264;-84
2024/01/24 19:29:12;;;;;;;35.13;8.07;;;;;9.50;102248.00;;;;9851149;29;20237;-84
2024/01/24 19:34:13;;;;;;;44.83;8.63;;;;;9.50;102239.00;;;;9812579;29;20265;-84
2024/01/24 19:39:16;;;;;;;38.03;8.17;;;;;9.50;102245.00;;;;9838762;29;20319;-85
2024/01/24 19:44:17;;;;;;;40.70;9.73;;;;;9.40;102233.00;;;;9839004;29;20234;-83
2024/01/24 19:49:19;;;;;;;45.07;8.40;;;;;9.40;102240.00;;;;9816642;29;20281;-85
2024/01/24 19:54:21;;;;;;;45.73;8.57;;;;;9.30;102232.00;;;;9838545;29;20595;-85
2024/01/24 19:59:23;;;;;;;40.10;8.37;;;;;9.30;102258.00;;;;9873780;29;20762;-86
2024/01/24 20:04:25;;;;;;;46.20;8.97;;;;;9.30;102261.00;;;;9839412;29;21018;-79
2024/01/24 20:09:27;;;;;;;47.83;7.83;;;;;9.20;102264.00;;;;9821923;29;20317;-80
2024/01/24 20:14:29;;;;;;;48.40;8.60;;;;;9.20;102262.00;;;;9854264;29;20239;-80
2024/01/24 20:19:31;;;;;;;42.77;8.40;;;;;9.20;102275.00;;;;9826090;29;20240;-78
2024/01/24 20:24:33;;;;;;;46.80;9.33;;;;;9.30;102272.00;;;;9837409;29;20240;-79
2024/01/24 20:29:35;;;;;;;46.30;9.07;;;;;9.30;102286.00;;;;9845070;29;20587;-79
2024/01/24 20:34:37;;;;;;;50.40;8.87;;;;;9.30;102275.00;;;;9835910;29;20220;-79
2024/01/24 20:39:39;;;;;;;46.50;7.57;;;;;9.30;102278.00;;;;9846478;29;20297;-79
2024/01/24 20:44:41;;;;;;;47.63;8.63;;;;;9.30;102280.00;;;;9844518;29;20322;-79
2024/01/24 20:49:43;;;;;;;59.73;10.37;;;;;9.20;102289.00;;;;9852011;29;20311;-79
2024/01/24 20:54:45;;;;;;;46.00;8.77;;;;;9.10;102278.00;;;;9838052;29;20239;-80
2024/01/24 20:59:47;;;;;;;46.07;8.97;;;;;9.10;102264.00;;;;9836255;29;20726;-78
2024/01/24 21:04:49;;;;;;;47.77;8.53;;;;;9.10;102273.00;;;;9815036;29;20240;-79
2024/01/24 21:09:52;;;;;;;56.17;9.10;;;;;9.10;102282.00;;;;9847794;29;20313;-79
2024/01/24 21:14:54;;;;;;;46.13;8.67;;;;;9.10;102279.00;;;;9840027;29;20728;-85
2024/01/24 21:19:56;;;;;;;46.63;9.53;;;;;9.10;102284.00;;;;9853983;29;20228;-85
2024/01/24 21:24:59;;;;;;;52.73;8.67;;;;;9.10;102292.00;;;;9835050;29;20236;-84
2024/01/24 21:30:04;;;;;;;43.73;9.00;;;;;9.10;102300.00;;;;9836133;29;20322;-82
2024/01/24 21:35:08;;;;;;;45.10;8.47;;;;;9.10;102296.00;;;;9851656;29;20240;-85
2024/01/24 21:40:10;;;;;;;52.90;9.20;;;;;9.10;102313.00;;;;9836824;29;20319;-85
2024/01/24 21:45:12;;;;;;;49.13;11.17;;;;;9.10;102310.00;;;;9845244;29;20326;-84
2024/01/24 21:50:14;;;;;;;41.10;8.80;;;;;9.00;102316.00;;;;9844927;29;20301;-85
2024/01/24 21:55:16;;;;;;;52.03;9.43;;;;;9.00;102315.00;;;;9835258;29;20746;-84
2024/01/24 22:00:18;;;;;;;49.30;8.83;;;;;9.00;102316.00;;;;9833644;29;20247;-85
2024/01/24 22:05:20;;;;;;;54.77;9.97;;;;;9.00;102323.00;;;;9833446;29;20293;-84
2024/01/24 22:10:23;;;;;;;41.87;7.67;;;;;9.00;102322.00;;;;9867057;29;20228;-87
2024/01/24 22:15:25;;;;;;;49.97;10.60;;;;;9.00;102328.00;;;;9847856;29;20233;-85
2024/01/24 22:20:27;;;;;;;43.23;8.27;;;;;9.00;102335.00;;;;9849321;29;20229;-84
2024/01/24 22:25:29;;;;;;;51.57;8.97;;;;;9.00;102325.00;;;;9837964;29;20886;-78
2024/01/24 22:30:32;;;;;;;48.87;9.63;;;;;9.00;102337.00;;;;9844201;29;20235;-78
2024/01/24 22:35:37;;;;;;;45.80;9.10;;;;;9.00;102341.00;;;;9821808;29;20239;-79
2024/01/24 22:40:39;;;;;;;52.17;9.10;;;;;9.00;102340.00;;;;9833305;29;20721;-78
2024/01/24 22:45:44;;;;;;;50.87;9.70;;;;;9.00;102346.00;;;;9832573;29;20315;-79
2024/01/24 22:50:46;;;;;;;52.03;8.60;;;;;8.90;102341.00;;;;9848493;29;20228;-78
2024/01/24 22:55:49;;;;;;;52.53;10.43;;;;;9.00;102329.00;;;;9834966;29;20335;-79
2024/01/24 23:00:52;;;;;;;54.80;10.90;;;;;9.00;102340.00;;;;9849760;29;20256;-79
2024/01/24 23:05:54;;;;;;;61.63;10.73;;;;;9.00;102331.00;;;;9863454;29;20239;-79
2024/01/24 23:10:56;;;;;;;43.07;9.27;;;;;9.00;102332.00;;;;9828002;29;20767;-78
2024/01/24 23:15:58;;;;;;;52.77;9.03;;;;;9.00;102338.00;;;;9831733;29;20240;-79
2024/01/24 23:21:01;;;;;;;56.30;10.20;;;;;9.00;102350.00;;;;9823070;29;20247;-79
2024/01/24 23:26:03;;;;;;;54.10;8.63;;;;;8.90;102352.00;;;;9854363;29;20228;-79
2024/01/24 23:31:05;;;;;;;48.37;8.60;;;;;8.90;102376.00;;;;9843444;29;21617;-78
2024/01/24 23:36:07;;;;;;;49.67;9.97;;;;;8.80;102366.00;;;;9827661;29;20608;-79
2024/01/24 23:41:09;;;;;;;59.90;9.40;;;;;8.80;102374.00;;;;9844090;29;20232;-79
2024/01/24 23:46:11;;;;;;;37.57;7.77;;;;;8.80;102376.00;;;;9845133;29;20238;-79
2024/01/24 23:51:13;;;;;;;43.97;9.33;;;;;8.80;102378.00;;;;9840758;29;20234;-79
2024/01/24 23:56:15;;;;;;;53.37;9.07;;;;;8.70;102388.00;;;;9841044;29;20239;-79
